Time;durP1;ratioP1;P1;durP2;ratioP2;P2;SDS_P1;SDS_P2;PMS_P1;PMS_P2;Temp;Humidity;BMP_temperature;BMP_pressure;BME280_temperature;BME280_humidity;BME280_pressure;Samples;Min_cycle;Max_cycle;Signal;HPM_P1;HPM_P2
2021/05/26 00:01:32;;;;;;;1.32;0.82;;;;;;;7.54;76.75;99170.70;1656877;84;21097;-68
2021/05/26 00:03:58;;;;;;;1.52;0.80;;;;;;;7.53;76.72;99168.99;1652509;84;21658;-68
2021/05/26 00:06:25;;;;;;;1.77;0.80;;;;;;;7.48;76.67;99167.05;1657217;84;21704;-67
2021/05/26 00:08:51;;;;;;;3.00;0.90;;;;;;;7.46;76.67;99164.99;1650098;84;21005;-67
2021/05/26 00:11:19;;;;;;;3.20;0.85;;;;;;;7.39;76.64;99169.16;1654737;84;21121;-68
2021/05/26 00:13:48;;;;;;;3.72;1.00;;;;;;;7.32;76.62;99166.42;1649457;84;20997;-67
2021/05/26 00:16:16;;;;;;;1.25;0.88;;;;;;;7.25;76.61;99161.09;1650401;84;21106;-67
2021/05/26 00:18:43;;;;;;;4.33;0.88;;;;;;;7.17;76.57;99170.98;1660447;84;21112;-68
2021/05/26 00:21:10;;;;;;;1.70;0.85;;;;;;;7.11;76.60;99162.13;1653778;84;21103;-68
2021/05/26 00:23:38;;;;;;;1.80;0.85;;;;;;;7.06;76.66;99164.10;1650456;84;21123;-67
2021/05/26 00:26:05;;;;;;;2.40;0.95;;;;;;;7.00;76.62;99161.73;1650920;84;21067;-67
2021/05/26 00:28:31;;;;;;;2.08;0.90;;;;;;;6.93;76.63;99169.78;1655373;84;21638;-68
2021/05/26 00:30:59;;;;;;;5.25;1.10;;;;;;;6.87;76.66;99168.73;1654897;84;21104;-67
2021/05/26 00:33:27;;;;;;;1.75;0.90;;;;;;;6.81;76.64;99172.89;1651011;84;20969;-67
2021/05/26 00:35:53;;;;;;;1.95;0.88;;;;;;;6.75;76.70;99165.36;1646839;84;21135;-68
2021/05/26 00:38:20;;;;;;;1.90;0.70;;;;;;;6.70;76.70;99160.80;1651750;84;21022;-67
2021/05/26 00:40:48;;;;;;;1.25;1.00;;;;;;;6.63;76.69;99158.05;1653680;84;21319;-67
2021/05/26 00:43:17;;;;;;;1.27;0.70;;;;;;;6.57;76.76;99160.89;1653172;84;21105;-67
2021/05/26 00:45:45;;;;;;;1.87;0.68;;;;;;;6.51;76.80;99154.20;1675942;83;20949;-67
2021/05/26 00:48:11;;;;;;;1.15;0.80;;;;;;;6.48;76.87;99155.16;1661104;84;21034;-67
2021/05/26 00:50:40;;;;;;;1.00;0.80;;;;;;;6.46;76.91;99151.78;1651453;84;21172;-67
2021/05/26 00:53:11;;;;;;;1.20;0.72;;;;;;;6.45;76.93;99153.99;1647508;84;21054;-67
2021/05/26 00:55:40;;;;;;;0.98;0.70;;;;;;;6.44;77.00;99148.42;1657661;84;20977;-67
2021/05/26 00:58:08;;;;;;;2.30;0.80;;;;;;;6.44;77.01;99149.72;1649861;84;21591;-67
2021/05/26 01:00:38;;;;;;;2.47;1.17;;;;;;;6.44;77.07;99148.42;1661096;84;21781;-67
2021/05/26 01:03:06;;;;;;;1.85;0.90;;;;;;;6.43;77.05;99154.50;1659606;84;21077;-67
2021/05/26 01:05:33;;;;;;;;;;;;;;;6.42;77.05;99154.12;1656856;84;21677;-67
2021/05/26 01:08:00;;;;;;;2.17;0.60;;;;;;;6.40;77.08;99150.73;1656708;84;20298;-67
2021/05/26 01:10:29;;;;;;;1.05;0.70;;;;;;;6.35;77.03;99143.58;1658006;84;21075;-67
2021/05/26 01:12:56;;;;;;;0.98;0.60;;;;;;;6.33;77.08;99148.00;1648202;84;21922;-68
2021/05/26 01:15:23;;;;;;;2.70;0.93;;;;;;;6.31;77.07;99135.55;1657108;84;21653;-67
2021/05/26 01:17:51;;;;;;;0.90;0.70;;;;;;;6.29;77.06;99138.64;1655644;84;21042;-67
2021/05/26 01:20:26;;;;;;;1.17;0.80;;;;;;;6.25;77.01;99131.90;1659931;84;21026;-68
2021/05/26 01:22:57;;;;;;;0.50;0.50;;;;;;;6.21;77.05;99125.13;1649934;84;21356;-67
2021/05/26 01:25:24;;;;;;;1.00;0.75;;;;;;;6.17;77.10;99130.05;1656519;84;21155;-67
2021/05/26 01:27:51;;;;;;;2.08;1.22;;;;;;;6.15;77.08;99130.55;1656608;84;21072;-67
2021/05/26 01:30:19;;;;;;;2.60;0.70;;;;;;;6.11;77.13;99129.00;1656174;84;20973;-67
2021/05/26 01:32:48;;;;;;;1.55;0.90;;;;;;;6.05;77.13;99127.03;1660317;84;21043;-68
2021/05/26 01:35:16;;;;;;;2.10;0.85;;;;;;;5.98;77.10;99119.08;1656558;84;21028;-67
2021/05/26 01:37:45;;;;;;;1.47;0.72;;;;;;;5.93;77.19;99121.00;1655366;84;21114;-68
2021/05/26 01:40:16;;;;;;;1.20;0.68;;;;;;;5.87;77.18;99123.80;1657146;84;21772;-68
2021/05/26 01:42:44;;;;;;;1.70;0.80;;;;;;;5.82;77.27;99124.41;1656700;84;21175;-68
2021/05/26 01:45:14;;;;;;;1.62;0.78;;;;;;;5.79;77.24;99118.05;1652730;84;21617;-68
2021/05/26 01:47:43;;;;;;;1.35;0.70;;;;;;;5.78;77.34;99126.73;1657412;84;20984;-68
2021/05/26 01:50:30;;;;;;;1.52;0.70;;;;;;;5.74;77.34;99126.44;1663709;84;21206;-67
2021/05/26 01:52:43;;;;;;;1.52;0.70;;;;;;;5.71;77.33;99122.67;1652195;84;21152;-67
2021/05/26 01:55:12;;;;;;;0.95;0.68;;;;;;;5.69;77.41;99123.20;1660519;84;21701;-67
2021/05/26 01:57:40;;;;;;;1.05;0.65;;;;;;;5.65;77.41;99119.02;1663006;84;21021;-67
2021/05/26 02:00:08;;;;;;;1.15;0.80;;;;;;;5.63;77.50;99116.93;1656619;84;21134;-67
2021/05/26 02:02:35;;;;;;;1.87;0.80;;;;;;;5.60;77.57;99127.81;1653799;84;21089;-67
2021/05/26 02:05:01;;;;;;;1.60;0.80;;;;;;;5.59;77.51;99128.70;1657893;84;21101;-67
2021/05/26 02:07:28;;;;;;;2.08;0.70;;;;;;;5.56;77.58;99124.92;1638131;86;21092;-68
2021/05/26 02:09:55;;;;;;;2.33;0.67;;;;;;;5.56;77.61;99124.92;1647671;86;21617;-67
2021/05/26 02:12:22;;;;;;;0.70;0.65;;;;;;;5.54;77.69;99121.54;1651205;86;21021;-67
2021/05/26 02:14:54;;;;;;;0.82;0.53;;;;;;;5.54;77.73;99118.95;1659999;86;21093;-67
2021/05/26 02:17:22;;;;;;;0.55;0.50;;;;;;;5.51;77.72;99119.06;1657518;84;21686;-67
2021/05/26 02:19:50;;;;;;;0.75;0.60;;;;;;;5.52;77.79;99124.66;1660745;84;21698;-67
2021/05/26 02:22:16;;;;;;;;;;;;;;;5.50;77.83;99122.56;1659111;84;20998;-67
2021/05/26 02:24:44;;;;;;;0.93;0.67;;;;;;;5.51;78.02;99118.23;1656230;84;20593;-67
2021/05/26 02:27:11;;;;;;;1.50;0.90;;;;;;;5.51;77.94;99124.24;1661108;84;21113;-67
2021/05/26 02:29:38;;;;;;;4.40;0.80;;;;;;;5.52;78.00;99130.30;1660293;84;21115;-67
2021/05/26 02:32:06;;;;;;;0.80;0.70;;;;;;;5.52;77.98;99124.66;1653975;84;21068;-67
2021/05/26 02:34:33;;;;;;;0.85;0.60;;;;;;;5.53;78.08;99125.04;1659709;84;21837;-67
2021/05/26 02:37:00;;;;;;;2.77;0.98;;;;;;;5.55;78.07;99120.66;1651870;84;22168;-67
2021/05/26 02:39:27;;;;;;;4.22;1.00;;;;;;;5.55;78.06;99123.25;1656138;84;21785;-67
2021/05/26 02:41:53;;;;;;;5.97;0.83;;;;;;;5.56;78.12;99130.11;1649882;84;21088;-67
2021/05/26 02:44:20;;;;;;;2.60;0.60;;;;;;;5.57;78.12;99134.41;1651644;84;21033;-67
2021/05/26 02:46:48;;;;;;;0.90;0.80;;;;;;;5.56;78.11;99137.88;1652040;84;21069;-67
2021/05/26 02:49:15;;;;;;;3.72;1.00;;;;;;;5.58;78.13;99137.83;1657505;84;21090;-67
2021/05/26 02:51:43;;;;;;;1.37;0.65;;;;;;;5.58;78.12;99134.79;1651301;84;21790;-67
2021/05/26 02:54:10;;;;;;;1.32;0.82;;;;;;;5.59;78.13;99129.99;1652510;84;21049;-67
2021/05/26 02:56:37;;;;;;;1.20;0.93;;;;;;;5.59;78.21;99132.58;1656981;84;26534;-67
2021/05/26 02:59:07;;;;;;;1.10;1.00;;;;;;;5.61;78.20;99128.20;1657857;84;21670;-67
2021/05/26 03:01:35;;;;;;;1.37;0.90;;;;;;;5.63;78.17;99124.70;1651465;84;20975;-67
2021/05/26 03:04:03;;;;;;;1.55;1.05;;;;;;;5.67;78.28;99127.59;1656056;84;21795;-67
2021/05/26 03:06:30;;;;;;;2.02;1.07;;;;;;;5.75;78.35;99132.03;1682024;84;22315;-67
2021/05/26 03:08:57;;;;;;;1.52;1.20;;;;;;;5.91;78.41;99124.09;1680629;83;21104;-67
2021/05/26 03:11:24;;;;;;;2.08;1.40;;;;;;;6.03;78.23;99129.28;1663641;84;21075;-67
2021/05/26 03:13:50;;;;;;;2.15;1.10;;;;;;;6.14;78.21;99128.88;1651498;85;21105;-66
2021/05/26 03:16:17;;;;;;;3.03;2.00;;;;;;;6.30;78.29;99126.52;1674471;84;21088;-67
2021/05/26 03:18:46;;;;;;;7.45;2.20;;;;;;;7.44;79.73;99122.65;1670025;84;21004;-67
2021/05/26 03:21:13;;;;;;;3.80;2.02;;;;;;;9.07;79.04;99119.27;1652898;85;21713;-68
2021/05/26 03:23:41;;;;;;;;;;;;;;;10.55;78.04;99127.06;1659250;85;21639;-68
2021/05/26 03:26:07;;;;;;;2.42;1.17;;;;;;;11.77;76.34;99127.67;1675207;84;20207;-68
2021/05/26 03:28:34;;;;;;;1.70;1.40;;;;;;;12.79;75.83;99123.87;1649323;85;21766;-68
2021/05/26 03:31:01;;;;;;;1.70;1.17;;;;;;;13.71;75.29;99126.85;1674365;84;21087;-68
2021/05/26 03:33:28;;;;;;;3.05;1.00;;;;;;;14.57;74.23;99127.33;1649263;85;21064;-68
2021/05/26 03:35:55;;;;;;;3.90;1.20;;;;;;;14.95;73.37;99127.93;1664498;84;21055;-69
2021/05/26 03:38:21;;;;;;;4.12;1.42;;;;;;;15.16;73.57;99125.98;1665053;84;21088;-69
2021/05/26 03:40:48;;;;;;;1.55;0.98;;;;;;;15.64;72.69;99135.01;1668465;84;21752;-69
2021/05/26 03:43:14;;;;;;;4.03;1.00;;;;;;;15.84;71.80;99126.41;1666073;86;21703;-69
2021/05/26 03:45:41;;;;;;;2.08;1.37;;;;;;;15.68;71.47;99125.94;1664120;84;21073;-69
2021/05/26 03:48:09;;;;;;;;;;;;;;;16.28;72.28;99120.73;1667829;84;21111;-69
2021/05/26 03:50:35;;;;;;;1.25;0.90;;;;;;;16.63;70.96;99119.66;1666416;84;20662;-69
2021/05/26 03:53:02;;;;;;;2.02;0.90;;;;;;;17.39;71.60;99115.58;1667159;84;21988;-70
2021/05/26 03:55:29;;;;;;;2.22;1.25;;;;;;;17.71;69.61;99123.87;1671592;83;21620;-70
2021/05/26 03:57:55;;;;;;;6.33;1.10;;;;;;;17.48;68.81;99119.27;1670008;84;21122;-70
2021/05/26 04:00:23;;;;;;;2.33;1.05;;;;;;;16.36;68.38;99120.62;1655746;84;21070;-69
2021/05/26 04:02:50;;;;;;;1.35;1.10;;;;;;;15.20;68.78;99126.09;1693936;82;21146;-69
2021/05/26 04:05:17;;;;;;;2.45;1.37;;;;;;;14.16;69.44;99136.36;1695012;82;21905;-69
2021/05/26 04:07:44;;;;;;;;;;;;;;;13.27;70.04;99130.73;1686271;83;21064;-68
2021/05/26 04:10:11;;;;;;;1.30;1.20;;;;;;;12.52;70.44;99132.59;1704440;82;20187;-69
2021/05/26 04:12:38;;;;;;;2.22;1.67;;;;;;;11.91;70.73;99144.33;1687344;83;20986;-69
2021/05/26 04:15:06;;;;;;;2.27;1.60;;;;;;;11.33;71.30;99142.95;1664363;84;21054;-68
2021/05/26 04:17:33;;;;;;;1.85;1.55;;;;;;;10.95;71.53;99131.70;1668899;84;21155;-68
2021/05/26 04:20:04;;;;;;;3.42;1.45;;;;;;;10.44;71.35;99138.11;1702755;82;21039;-68
2021/05/26 04:22:35;;;;;;;2.20;1.70;;;;;;;10.00;71.65;99134.40;1697355;82;21016;-68
2021/05/26 04:25:04;;;;;;;5.72;1.98;;;;;;;9.59;71.69;99132.22;1698551;82;21059;-68
2021/05/26 04:27:30;;;;;;;4.85;2.25;;;;;;;9.30;71.97;99132.88;1670927;84;21635;-68
2021/05/26 04:29:59;;;;;;;5.73;1.67;;;;;;;9.11;72.22;99136.44;1667990;84;21907;-67
2021/05/26 04:32:25;;;;;;;2.72;2.40;;;;;;;8.98;72.25;99137.97;1681887;83;20996;-67
2021/05/26 04:34:52;;;;;;;4.22;2.83;;;;;;;8.86;72.37;99125.11;1666755;83;21028;-68
2021/05/26 04:37:19;;;;;;;3.05;2.75;;;;;;;8.77;72.33;99129.94;1678798;84;21056;-68
2021/05/26 04:39:46;;;;;;;3.40;2.63;;;;;;;8.69;72.45;99135.05;1687726;84;21073;-67
2021/05/26 04:42:12;;;;;;;6.42;2.95;;;;;;;8.61;72.49;99138.95;1690181;83;21136;-68
2021/05/26 04:44:39;;;;;;;3.83;2.90;;;;;;;8.53;72.51;99135.87;1692803;83;20954;-68
2021/05/26 04:47:06;;;;;;;3.33;3.00;;;;;;;8.47;72.59;99134.41;1684493;83;21596;-68
2021/05/26 04:49:32;;;;;;;5.93;3.10;;;;;;;8.48;72.75;99133.48;1691558;83;20946;-67
2021/05/26 04:51:59;;;;;;;4.13;3.10;;;;;;;8.47;72.80;99130.04;1688387;83;21211;-68
2021/05/26 04:54:26;;;;;;;3.90;3.10;;;;;;;8.49;72.82;99132.58;1691824;83;21104;-68
2021/05/26 04:56:53;;;;;;;5.28;3.40;;;;;;;8.54;72.81;99132.34;1689776;83;21107;-68
2021/05/26 04:59:19;;;;;;;3.10;2.80;;;;;;;8.59;73.00;99132.97;1690574;83;21048;-68
2021/05/26 05:01:46;;;;;;;5.28;3.35;;;;;;;8.62;72.85;99138.86;1690498;83;21572;-68
2021/05/26 05:04:13;;;;;;;6.87;3.42;;;;;;;8.67;73.05;99131.67;1682964;83;21049;-68
2021/05/26 05:06:40;;;;;;;5.58;4.30;;;;;;;8.82;73.11;99133.14;1659139;84;21049;-68
2021/05/26 05:09:08;;;;;;;6.00;3.77;;;;;;;8.99;73.11;99133.16;1665829;84;21658;-68
2021/05/26 05:11:35;;;;;;;4.58;3.22;;;;;;;9.06;72.93;99126.71;1666471;84;21054;-68
2021/05/26 05:14:01;;;;;;;4.28;2.65;;;;;;;9.15;73.10;99123.63;1667530;84;21077;-68
2021/05/26 05:16:28;;;;;;;4.58;4.10;;;;;;;9.26;72.98;99128.77;1665191;84;21073;-68
2021/05/26 05:18:55;;;;;;;10.08;3.37;;;;;;;9.29;72.90;99128.61;1663184;84;21057;-68
2021/05/26 05:22:29;;;;;;;5.47;3.40;;;;;;;9.54;73.32;99113.38;1864928;75;22726;-68
2021/05/26 05:24:56;;;;;;;3.30;3.00;;;;;;;9.60;73.08;99118.25;1831696;76;20980;-67
2021/05/26 05:27:22;;;;;;;6.67;2.90;;;;;;;9.73;73.12;99122.84;1835758;77;21038;-67
2021/05/26 05:29:50;;;;;;;3.83;2.93;;;;;;;9.88;73.35;99121.16;1829067;77;21038;-66
2021/05/26 05:32:17;;;;;;;5.80;2.27;;;;;;;10.15;73.22;99120.13;1836913;77;20972;-69
2021/05/26 05:34:43;;;;;;;2.30;2.10;;;;;;;10.95;74.30;99121.25;1827281;77;20983;-69
2021/05/26 05:37:10;;;;;;;3.40;2.77;;;;;;;12.03;73.03;99116.08;1834262;77;21103;-69
2021/05/26 05:39:36;;;;;;;4.90;2.60;;;;;;;12.14;71.95;99125.40;1826609;77;20987;-66
2021/05/26 05:42:04;;;;;;;6.10;2.50;;;;;;;11.98;71.77;99128.61;1832496;77;21046;-69
2021/05/26 05:44:31;;;;;;;1.90;1.80;;;;;;;11.72;71.47;99132.34;1829533;77;20987;-68
2021/05/26 05:46:58;;;;;;;2.33;2.08;;;;;;;11.48;71.54;99125.98;1832820;77;21067;-68
2021/05/26 05:49:26;;;;;;;2.30;2.10;;;;;;;11.23;71.70;99127.47;1831894;77;21056;-69
2021/05/26 05:51:53;;;;;;;2.90;2.10;;;;;;;10.92;71.80;99120.56;1793314;78;21076;-69
2021/05/26 05:54:19;;;;;;;2.37;1.92;;;;;;;10.92;71.80;99120.56;1798672;78;20989;-69
2021/05/26 05:56:46;;;;;;;3.23;2.57;;;;;;;10.87;72.02;99126.08;1803792;78;21023;-69
2021/05/26 05:59:13;;;;;;;2.53;2.00;;;;;;;10.70;72.09;99131.44;1796023;78;21339;-69
2021/05/26 06:01:41;;;;;;;5.65;2.55;;;;;;;10.58;71.97;99132.11;1762441;80;21025;-69
2021/05/26 06:04:08;;;;;;;3.90;2.27;;;;;;;10.43;72.13;99142.49;1765005;78;21864;-69
2021/05/26 06:06:35;;;;;;;3.65;2.30;;;;;;;11.00;72.97;99139.72;1780622;78;21632;-69
2021/05/26 06:09:04;;;;;;;2.50;2.30;;;;;;;11.68;72.67;99137.84;1769259;80;20984;-69
2021/05/26 06:11:34;;;;;;;3.20;2.42;;;;;;;12.02;72.11;99134.03;1753780;78;21034;-70
2021/05/26 06:14:08;;;;;;;5.15;2.30;;;;;;;12.30;71.71;99126.11;1803104;78;21584;-70
2021/05/26 06:16:37;;;;;;;3.92;2.42;;;;;;;12.88;72.06;99136.34;1780882;78;21070;-69
2021/05/26 06:19:06;;;;;;;2.95;2.15;;;;;;;12.78;70.56;99133.52;1797384;78;21032;-69
2021/05/26 06:21:34;;;;;;;3.02;2.50;;;;;;;12.53;70.68;99144.74;1798572;78;21015;-67
2021/05/26 06:24:01;;;;;;;2.95;2.12;;;;;;;12.29;70.71;99138.84;1795163;78;21610;-69
2021/05/26 06:26:33;;;;;;;2.50;2.30;;;;;;;12.10;70.92;99134.39;1801406;78;21106;-67
2021/05/26 06:29:05;;;;;;;7.10;2.90;;;;;;;11.80;70.72;99140.55;1799726;78;21853;-68
2021/05/26 06:31:32;;;;;;;6.22;2.37;;;;;;;11.56;70.97;99136.81;1802461;78;21000;-69
2021/05/26 06:33:59;;;;;;;;;;;;;;;11.67;71.56;99134.39;1780613;79;21597;-69
2021/05/26 06:36:26;;;;;;;1.67;1.43;;;;;;;11.90;71.23;99134.78;1776303;79;20301;-69
2021/05/26 06:38:53;;;;;;;6.60;2.20;;;;;;;12.10;71.22;99127.86;1779076;79;22495;-69
2021/05/26 06:41:20;;;;;;;3.77;2.08;;;;;;;12.33;71.05;99137.33;1777883;79;21787;-69
2021/05/26 06:43:48;;;;;;;2.47;1.77;;;;;;;12.46;71.09;99132.97;1781745;79;21000;-69
2021/05/26 06:46:19;;;;;;;4.65;1.70;;;;;;;12.59;70.91;99133.87;1751675;79;20928;-67
2021/05/26 06:48:45;;;;;;;6.58;1.90;;;;;;;12.78;70.92;99130.05;1778979;79;21047;-69
2021/05/26 06:51:13;;;;;;;2.95;1.60;;;;;;;13.15;71.18;99130.58;1778319;79;21007;-69
2021/05/26 06:53:39;;;;;;;;;;;;;;;13.64;70.53;99127.28;1782965;79;21025;-68
2021/05/26 06:56:06;;;;;;;6.83;1.90;;;;;;;14.10;70.20;99130.59;1782039;79;20546;-65
2021/05/26 06:58:33;;;;;;;3.17;1.47;;;;;;;14.10;69.28;99133.22;1777688;79;21673;-69
2021/05/26 07:00:59;;;;;;;4.22;2.08;;;;;;;13.82;69.46;99136.12;1779608;79;21319;-69
2021/05/26 07:03:26;;;;;;;2.35;1.40;;;;;;;14.09;70.04;99139.43;1783043;79;21015;-69
2021/05/26 07:05:52;;;;;;;1.90;1.50;;;;;;;14.07;69.29;99130.81;1776716;79;21660;-69
2021/05/26 07:08:29;;;;;;;3.33;1.50;;;;;;;14.07;69.29;99130.81;1775540;79;21516;-65
2021/05/26 07:11:01;;;;;;;1.62;1.47;;;;;;;13.92;69.00;99137.17;1776506;79;21058;-69
2021/05/26 07:13:27;;;;;;;1.50;1.30;;;;;;;13.89;69.21;99137.35;1779118;79;21231;-68
2021/05/26 07:15:54;;;;;;;2.40;2.00;;;;;;;13.87;69.01;99140.10;1776078;79;21094;-69
2021/05/26 07:18:22;;;;;;;1.25;1.12;;;;;;;13.94;68.68;99135.73;1776611;79;22139;-69
2021/05/26 07:20:49;;;;;;;1.52;1.37;;;;;;;14.28;69.21;99138.09;1777664;79;21015;-69
2021/05/26 07:23:18;;;;;;;3.50;1.70;;;;;;;15.05;69.55;99140.41;1779862;79;21011;-69
2021/05/26 07:25:45;;;;;;;2.02;1.05;;;;;;;15.69;69.02;99132.89;1780973;79;21035;-66
2021/05/26 07:28:12;;;;;;;7.03;2.30;;;;;;;15.84;68.28;99134.31;1778486;79;20972;-69
2021/05/26 07:30:40;;;;;;;9.40;6.05;;;;;;;16.03;68.46;99127.61;1783401;79;21625;-69
2021/05/26 07:33:07;;;;;;;3.27;2.50;;;;;;;16.13;67.67;99128.53;1789507;79;20976;-69
2021/05/26 07:35:33;;;;;;;1.92;1.37;;;;;;;16.00;67.28;99131.32;1775075;79;21047;-69
2021/05/26 07:38:00;;;;;;;5.35;1.45;;;;;;;16.05;67.47;99137.55;1781502;79;21566;-69
2021/05/26 07:40:27;;;;;;;3.33;1.35;;;;;;;15.94;66.55;99138.88;1792584;78;21019;-70
2021/05/26 07:42:54;;;;;;;1.30;0.90;;;;;;;15.68;66.69;99141.73;1802441;78;21801;-69
2021/05/26 07:45:21;;;;;;;5.30;1.20;;;;;;;15.23;66.08;99133.75;1795648;78;21653;-68
2021/05/26 07:47:47;;;;;;;;;;;;;;;15.14;67.02;99135.77;1802469;78;21048;-70
2021/05/26 07:50:14;;;;;;;14.68;1.57;;;;;;;15.32;66.48;99135.70;1802010;78;20586;-69
2021/05/26 07:52:41;;;;;;;1.75;0.90;;;;;;;15.18;66.35;99138.55;1774647;79;26680;-69
2021/05/26 07:55:08;;;;;;;1.75;1.00;;;;;;;15.24;66.58;99132.81;1801813;78;21051;-69
2021/05/26 07:57:35;;;;;;;1.25;0.98;;;;;;;15.59;67.52;99141.09;1805270;78;22030;-69
2021/05/26 08:00:04;;;;;;;9.93;1.20;;;;;;;15.85;66.10;99131.20;1804316;78;20956;-70
2021/05/26 08:02:31;;;;;;;2.58;0.80;;;;;;;15.96;66.21;99140.89;1778565;78;21008;-69
2021/05/26 08:04:58;;;;;;;1.52;0.85;;;;;;;16.31;66.23;99137.61;1802062;78;21189;-68
2021/05/26 08:07:24;;;;;;;5.92;0.60;;;;;;;16.19;65.56;99129.39;1774929;78;21142;-70
2021/05/26 08:09:51;;;;;;;1.87;0.80;;;;;;;16.08;64.45;99137.31;1773818;79;20981;-71
2021/05/26 08:12:18;;;;;;;10.53;1.27;;;;;;;15.73;64.91;99136.95;1779098;79;21068;-70
2021/05/26 08:14:44;;;;;;;2.17;1.27;;;;;;;15.63;64.89;99135.97;1778299;78;21058;-69
2021/05/26 08:17:11;;;;;;;3.25;0.85;;;;;;;15.64;64.65;99137.64;1807319;77;21063;-69
2021/05/26 08:19:38;;;;;;;2.50;1.30;;;;;;;15.58;64.66;99143.38;1812360;78;21083;-69
2021/05/26 08:22:04;;;;;;;4.70;1.17;;;;;;;15.45;64.05;99143.47;1801508;78;21012;-67
2021/05/26 08:24:31;;;;;;;1.98;0.85;;;;;;;15.28;63.84;99139.50;1809720;78;21596;-69
2021/05/26 08:26:57;;;;;;;5.08;1.52;;;;;;;15.09;63.94;99149.73;1804685;78;21302;-68
2021/05/26 08:29:26;;;;;;;1.52;0.70;;;;;;;15.18;64.39;99143.31;1804186;78;20912;-70
2021/05/26 08:31:57;;;;;;;12.50;2.67;;;;;;;15.44;64.17;99149.22;1802189;77;20968;-69
2021/05/26 08:34:21;;;;;;;6.47;0.88;;;;;;;15.59;63.65;99155.09;1808107;78;20976;-69
2021/05/26 08:36:48;;;;;;;3.00;1.20;;;;;;;15.74;63.58;99153.57;1786147;78;21625;-69
2021/05/26 08:39:14;;;;;;;;;;;;;;;15.62;63.14;99154.02;1812142;77;21059;-67
2021/05/26 08:41:45;;;;;;;1.55;0.80;;;;;;;15.57;63.33;99153.08;1806301;78;20161;-69
2021/05/26 08:44:14;;;;;;;3.95;1.00;;;;;;;15.57;63.75;99155.70;1796589;78;21624;-69
2021/05/26 08:46:41;;;;;;;6.65;1.07;;;;;;;15.89;63.16;99153.23;1787917;78;21245;-69
2021/05/26 08:49:10;;;;;;;3.67;0.65;;;;;;;15.89;63.07;99155.86;1799293;77;21003;-70
2021/05/26 08:51:41;;;;;;;1.85;0.90;;;;;;;15.76;63.01;99155.13;1804655;78;21538;-69
2021/05/26 08:54:07;;;;;;;2.42;0.80;;;;;;;15.75;63.28;99160.53;1808864;78;21680;-69
2021/05/26 08:56:34;;;;;;;0.85;0.60;;;;;;;15.85;62.75;99154.89;1809185;78;21661;-69
2021/05/26 08:59:01;;;;;;;2.25;0.70;;;;;;;15.65;62.25;99153.78;1813751;77;21087;-69
2021/05/26 09:01:28;;;;;;;3.27;0.93;;;;;;;15.45;61.95;99151.37;1782945;78;21655;-68
2021/05/26 09:03:55;;;;;;;2.55;1.02;;;;;;;15.27;62.22;99156.25;1808476;78;21055;-70
2021/05/26 09:06:22;;;;;;;3.05;0.80;;;;;;;15.23;62.00;99157.41;1805628;77;21024;-70
2021/05/26 09:08:51;;;;;;;3.30;0.70;;;;;;;15.14;62.27;99151.54;1811162;78;21026;-69
2021/05/26 09:11:36;;;;;;;2.87;0.80;;;;;;;15.10;62.07;99155.37;1785078;78;21296;-70
2021/05/26 09:14:12;;;;;;;6.47;1.40;;;;;;;15.14;61.82;99152.86;1776594;78;21044;-70
2021/05/26 09:16:39;;;;;;;5.28;1.00;;;;;;;15.05;61.81;99157.50;1783774;78;21206;-70
2021/05/26 09:19:09;;;;;;;2.75;0.93;;;;;;;15.14;62.12;99155.48;1790542;79;21602;-70
2021/05/26 09:21:45;;;;;;;2.00;0.93;;;;;;;15.18;62.08;99157.78;1784988;79;21074;-69
2021/05/26 09:24:27;;;;;;;6.75;1.70;;;;;;;15.23;61.87;99161.36;1775396;79;20972;-69
2021/05/26 09:27:04;;;;;;;2.40;1.00;;;;;;;15.23;61.51;99165.30;1779569;78;21051;-69
2021/05/26 09:29:35;;;;;;;6.03;1.02;;;;;;;15.15;61.10;99162.41;1763362;79;21595;-69
2021/05/26 09:32:24;;;;;;;3.87;1.35;;;;;;;14.79;61.15;99164.22;1766453;79;21011;-70
2021/05/26 09:34:58;;;;;;;1.20;0.90;;;;;;;14.35;60.87;99178.74;1765270;79;21068;-69
2021/05/26 09:37:28;;;;;;;2.08;0.90;;;;;;;13.72;61.08;99174.42;1765495;79;21021;-70
2021/05/26 09:40:07;;;;;;;3.85;0.95;;;;;;;13.37;61.43;99179.00;1760332;79;21649;-70
2021/05/26 09:42:42;;;;;;;1.20;0.80;;;;;;;13.08;61.61;99183.06;1762714;79;21020;-69
2021/05/26 09:45:20;;;;;;;2.08;1.10;;;;;;;12.97;61.90;99177.69;1762236;79;21059;-66
2021/05/26 09:47:51;;;;;;;1.67;1.10;;;;;;;13.03;62.05;99185.14;1764767;79;21578;-70
2021/05/26 09:50:28;;;;;;;3.42;1.02;;;;;;;13.20;62.45;99187.48;1761581;79;21028;-66
2021/05/26 09:53:06;;;;;;;1.50;1.22;;;;;;;13.85;63.20;99177.89;1758454;80;22682;-69
2021/05/26 09:55:42;;;;;;;2.30;1.10;;;;;;;14.67;63.21;99180.86;1766571;80;22302;-70
2021/05/26 09:58:12;;;;;;;2.07;1.20;;;;;;;15.18;62.21;99175.36;1766578;79;20980;-70
2021/05/26 10:00:41;;;;;;;3.30;1.02;;;;;;;15.50;61.93;99165.49;1765818;79;21100;-70
2021/05/26 10:03:08;;;;;;;1.65;1.02;;;;;;;15.62;61.79;99166.69;1763334;79;21071;-70
2021/05/26 10:05:35;;;;;;;2.33;1.30;;;;;;;15.71;61.62;99160.39;1762015;80;21016;-70
2021/05/26 10:08:07;;;;;;;1.60;0.88;;;;;;;15.66;61.55;99166.00;1738052;80;21623;-70
2021/05/26 10:10:34;;;;;;;2.37;1.00;;;;;;;15.86;61.95;99164.00;1765522;79;21059;-70
2021/05/26 10:13:04;;;;;;;1.20;0.82;;;;;;;16.28;61.77;99161.57;1767901;79;21062;-72
2021/05/26 10:15:33;;;;;;;1.25;0.90;;;;;;;16.63;61.34;99160.52;1765058;80;21030;-68
2021/05/26 10:18:02;;;;;;;7.03;1.37;;;;;;;16.64;60.71;99152.98;1770703;79;20953;-70
2021/05/26 10:20:41;;;;;;;1.85;1.10;;;;;;;16.32;60.41;99160.35;1764066;79;20991;-70
2021/05/26 10:23:08;;;;;;;1.75;1.20;;;;;;;16.15;60.69;99167.45;1764610;79;20964;-71
2021/05/26 10:25:42;;;;;;;3.27;1.00;;;;;;;16.37;60.80;99165.27;1762145;79;21766;-71
2021/05/26 10:28:31;;;;;;;1.40;0.85;;;;;;;16.51;60.48;99161.52;1760173;79;21085;-70
2021/05/26 10:31:00;;;;;;;2.37;1.10;;;;;;;16.43;60.00;99169.20;1766324;79;21121;-69
2021/05/26 10:33:47;;;;;;;3.55;0.90;;;;;;;16.37;60.15;99165.75;1733315;81;21011;-69
2021/05/26 10:36:15;;;;;;;1.42;0.80;;;;;;;16.43;60.09;99166.57;1762459;79;21719;-69
2021/05/26 10:38:58;;;;;;;2.40;0.95;;;;;;;16.56;60.04;99171.22;1768273;79;21750;-67
2021/05/26 10:41:26;;;;;;;1.62;1.00;;;;;;;16.67;60.12;99172.50;1761312;80;21007;-70
2021/05/26 10:43:56;;;;;;;1.12;0.72;;;;;;;16.72;59.64;99166.38;1765482;79;20971;-69
2021/05/26 10:46:41;;;;;;;1.98;0.90;;;;;;;16.78;59.29;99167.22;1767020;79;21041;-70
2021/05/26 10:49:12;;;;;;;2.25;0.80;;;;;;;16.71;59.50;99166.00;1760509;79;21107;-70
2021/05/26 10:51:57;;;;;;;3.15;0.90;;;;;;;16.58;59.18;99165.34;1765032;79;21028;-70
2021/05/26 10:54:44;;;;;;;4.08;0.72;;;;;;;16.63;59.52;99165.79;1761963;79;21066;-69
2021/05/26 10:57:11;;;;;;;1.22;0.60;;;;;;;16.80;59.04;99160.98;1764520;79;21019;-68
2021/05/26 10:59:39;;;;;;;0.80;0.65;;;;;;;16.68;58.84;99160.98;1761432;80;21157;-69
2021/05/26 11:02:11;;;;;;;1.75;0.80;;;;;;;16.53;58.67;99163.56;1774798;78;21609;-68
2021/05/26 11:04:40;;;;;;;2.45;0.70;;;;;;;16.47;59.08;99165.38;1787154;78;21636;-68
2021/05/26 11:07:21;;;;;;;2.30;1.12;;;;;;;16.41;58.40;99159.27;1757833;79;20964;-68
2021/05/26 11:10:00;;;;;;;9.78;1.20;;;;;;;16.45;58.84;99152.31;1768239;79;21561;-68
2021/05/26 11:12:28;;;;;;;4.62;1.17;;;;;;;16.72;58.56;99161.11;1758066;81;21018;-68
2021/05/26 11:14:56;;;;;;;6.87;1.30;;;;;;;16.95;58.78;99155.78;1781763;80;20947;-68
2021/05/26 11:17:27;;;;;;;2.47;0.88;;;;;;;16.95;58.46;99160.56;1761969;79;21706;-68
2021/05/26 11:20:15;;;;;;;7.67;3.62;;;;;;;17.01;58.16;99157.91;1762438;80;20976;-68
2021/05/26 11:22:44;;;;;;;12.35;2.37;;;;;;;16.96;57.98;99156.13;1768527;79;20965;-68
2021/05/26 11:25:12;;;;;;;2.62;0.75;;;;;;;17.07;58.08;99161.34;1765250;79;22318;-68
2021/05/26 11:27:48;;;;;;;32.88;2.55;;;;;;;17.29;58.07;99149.00;1769228;79;20974;-68
2021/05/26 11:30:19;;;;;;;5.47;1.27;;;;;;;17.28;57.81;99148.17;1768159;79;22419;-68
2021/05/26 11:32:46;;;;;;;2.98;0.98;;;;;;;17.20;57.58;99140.89;1766975;79;21047;-68
2021/05/26 11:35:14;;;;;;;4.12;0.90;;;;;;;17.08;57.12;99155.09;1765167;79;21073;-68
2021/05/26 11:37:41;;;;;;;15.35;1.92;;;;;;;16.91;56.98;99156.97;1765162;79;21022;-68
2021/05/26 11:40:26;;;;;;;;;;;;;;;16.75;57.10;99160.85;1768169;79;20996;-68
2021/05/26 11:42:56;;;;;;;4.58;0.80;;;;;;;16.82;57.34;99155.94;1729605;79;21885;-68
2021/05/26 11:45:24;;;;;;;1.35;0.70;;;;;;;17.07;57.77;99148.16;1761592;79;21065;-68
2021/05/26 11:47:56;;;;;;;1.87;0.98;;;;;;;16.99;56.88;99145.31;1766919;79;21077;-68